sensor_id;sensor_type;location;lat;lon;timestamp;P1;durP1;ratioP1;P2;durP2;ratioP2
13660;SDS011;6903;49.480;11.102;2022-09-06T00:01:48;6.32;;;5.40;;
13660;SDS011;6903;49.480;11.102;2022-09-06T00:04:14;6.77;;;5.30;;
13660;SDS011;6903;49.480;11.102;2022-09-06T00:06:39;6.03;;;5.23;;
13660;SDS011;6903;49.480;11.102;2022-09-06T00:09:04;6.90;;;4.97;;
13660;SDS011;6903;49.480;11.102;2022-09-06T00:11:30;5.00;;;4.60;;
13660;SDS011;6903;49.480;11.102;2022-09-06T00:13:55;5.07;;;4.57;;
13660;SDS011;6903;49.480;11.102;2022-09-06T00:16:21;5.50;;;5.00;;
13660;SDS011;6903;49.480;11.102;2022-09-06T00:18:48;5.50;;;4.85;;
13660;SDS011;6903;49.480;11.102;2022-09-06T00:21:15;5.40;;;4.90;;
13660;SDS011;6903;49.480;11.102;2022-09-06T00:23:52;5.80;;;5.13;;
13660;SDS011;6903;49.480;11.102;2022-09-06T00:26:18;6.00;;;4.93;;
13660;SDS011;6903;49.480;11.102;2022-09-06T00:28:44;5.37;;;4.87;;
13660;SDS011;6903;49.480;11.102;2022-09-06T00:31:11;5.40;;;4.90;;
13660;SDS011;6903;49.480;11.102;2022-09-06T00:33:41;5.70;;;5.10;;
13660;SDS011;6903;49.480;11.102;2022-09-06T00:36:06;5.20;;;4.73;;
13660;SDS011;6903;49.480;11.102;2022-09-06T00:38:33;5.63;;;5.10;;
13660;SDS011;6903;49.480;11.102;2022-09-06T00:40:58;6.00;;;5.20;;
13660;SDS011;6903;49.480;11.102;2022-09-06T00:43:23;5.70;;;5.10;;
13660;SDS011;6903;49.480;11.102;2022-09-06T00:45:49;6.53;;;5.93;;
13660;SDS011;6903;49.480;11.102;2022-09-06T00:48:15;6.13;;;5.57;;
13660;SDS011;6903;49.480;11.102;2022-09-06T00:50:41;6.43;;;5.77;;
13660;SDS011;6903;49.480;11.102;2022-09-06T00:53:08;6.03;;;5.30;;
13660;SDS011;6903;49.480;11.102;2022-09-06T00:55:34;5.67;;;5.07;;
13660;SDS011;6903;49.480;11.102;2022-09-06T00:57:59;10.80;;;7.00;;
13660;SDS011;6903;49.480;11.102;2022-09-06T01:00:25;8.67;;;6.33;;
13660;SDS011;6903;49.480;11.102;2022-09-06T01:02:50;6.80;;;6.20;;
13660;SDS011;6903;49.480;11.102;2022-09-06T01:05:17;10.00;;;6.47;;
13660;SDS011;6903;49.480;11.102;2022-09-06T01:10:23;6.53;;;5.40;;
13660;SDS011;6903;49.480;11.102;2022-09-06T01:20:50;6.90;;;6.30;;
13660;SDS011;6903;49.480;11.102;2022-09-06T01:23:37;6.73;;;5.37;;
13660;SDS011;6903;49.480;11.102;2022-09-06T01:26:23;7.13;;;5.57;;
13660;SDS011;6903;49.480;11.102;2022-09-06T01:29:07;6.33;;;5.80;;
13660;SDS011;6903;49.480;11.102;2022-09-06T01:31:54;7.77;;;6.90;;
13660;SDS011;6903;49.480;11.102;2022-09-06T01:34:34;7.63;;;6.97;;
13660;SDS011;6903;49.480;11.102;2022-09-06T01:37:10;7.80;;;6.93;;
13660;SDS011;6903;49.480;11.102;2022-09-06T01:39:39;8.03;;;7.23;;
13660;SDS011;6903;49.480;11.102;2022-09-06T01:42:16;8.27;;;7.57;;
13660;SDS011;6903;49.480;11.102;2022-09-06T01:44:48;8.47;;;7.70;;
13660;SDS011;6903;49.480;11.102;2022-09-06T01:50:19;7.90;;;7.20;;
13660;SDS011;6903;49.480;11.102;2022-09-06T01:53:08;7.60;;;6.83;;
13660;SDS011;6903;49.480;11.102;2022-09-06T01:55:54;8.13;;;7.37;;
13660;SDS011;6903;49.480;11.102;2022-09-06T01:58:28;8.87;;;8.07;;
13660;SDS011;6903;49.480;11.102;2022-09-06T02:01:48;10.17;;;9.17;;
13660;SDS011;6903;49.480;11.102;2022-09-06T02:06:39;9.50;;;8.60;;
13660;SDS011;6903;49.480;11.102;2022-09-06T02:09:10;12.37;;;10.87;;
13660;SDS011;6903;49.480;11.102;2022-09-06T02:11:46;11.97;;;10.50;;
13660;SDS011;6903;49.480;11.102;2022-09-06T02:14:25;14.27;;;11.97;;
13660;SDS011;6903;49.480;11.102;2022-09-06T02:16:56;13.77;;;12.43;;
13660;SDS011;6903;49.480;11.102;2022-09-06T02:19:25;13.50;;;12.10;;
13660;SDS011;6903;49.480;11.102;2022-09-06T02:21:56;11.30;;;9.93;;
13660;SDS011;6903;49.480;11.102;2022-09-06T02:24:22;10.43;;;9.40;;
13660;SDS011;6903;49.480;11.102;2022-09-06T02:26:54;10.73;;;9.57;;
13660;SDS011;6903;49.480;11.102;2022-09-06T02:29:20;10.30;;;9.20;;
13660;SDS011;6903;49.480;11.102;2022-09-06T02:31:50;11.77;;;10.20;;
13660;SDS011;6903;49.480;11.102;2022-09-06T02:34:20;10.63;;;9.50;;
13660;SDS011;6903;49.480;11.102;2022-09-06T02:36:46;11.00;;;9.90;;
13660;SDS011;6903;49.480;11.102;2022-09-06T02:39:12;10.83;;;9.80;;
13660;SDS011;6903;49.480;11.102;2022-09-06T02:41:38;11.43;;;10.17;;
13660;SDS011;6903;49.480;11.102;2022-09-06T02:44:04;10.83;;;9.67;;
13660;SDS011;6903;49.480;11.102;2022-09-06T02:46:30;11.67;;;10.57;;
13660;SDS011;6903;49.480;11.102;2022-09-06T02:48:55;11.67;;;10.47;;
13660;SDS011;6903;49.480;11.102;2022-09-06T02:51:21;11.97;;;10.83;;
13660;SDS011;6903;49.480;11.102;2022-09-06T02:53:47;11.90;;;10.70;;
13660;SDS011;6903;49.480;11.102;2022-09-06T02:56:12;12.27;;;10.93;;
13660;SDS011;6903;49.480;11.102;2022-09-06T02:58:37;13.57;;;12.17;;
13660;SDS011;6903;49.480;11.102;2022-09-06T03:01:03;13.80;;;12.60;;
13660;SDS011;6903;49.480;11.102;2022-09-06T03:03:29;12.90;;;11.77;;
13660;SDS011;6903;49.480;11.102;2022-09-06T03:05:55;13.00;;;11.70;;
13660;SDS011;6903;49.480;11.102;2022-09-06T03:08:21;12.70;;;11.60;;
13660;SDS011;6903;49.480;11.102;2022-09-06T03:10:53;13.17;;;11.50;;
13660;SDS011;6903;49.480;11.102;2022-09-06T03:13:20;11.67;;;10.57;;
13660;SDS011;6903;49.480;11.102;2022-09-06T03:15:50;12.93;;;11.57;;
13660;SDS011;6903;49.480;11.102;2022-09-06T03:18:20;11.73;;;10.73;;
13660;SDS011;6903;49.480;11.102;2022-09-06T03:20:47;13.27;;;12.07;;
13660;SDS011;6903;49.480;11.102;2022-09-06T03:23:13;15.20;;;13.80;;
13660;SDS011;6903;49.480;11.102;2022-09-06T03:25:38;16.43;;;14.77;;
13660;SDS011;6903;49.480;11.102;2022-09-06T03:28:04;14.97;;;13.57;;
13660;SDS011;6903;49.480;11.102;2022-09-06T03:30:29;14.17;;;12.87;;
13660;SDS011;6903;49.480;11.102;2022-09-06T03:32:54;13.93;;;12.47;;
13660;SDS011;6903;49.480;11.102;2022-09-06T03:35:20;13.17;;;11.97;;
13660;SDS011;6903;49.480;11.102;2022-09-06T03:37:45;14.47;;;13.17;;
13660;SDS011;6903;49.480;11.102;2022-09-06T03:40:10;15.47;;;13.80;;
13660;SDS011;6903;49.480;11.102;2022-09-06T03:42:36;13.37;;;12.17;;
13660;SDS011;6903;49.480;11.102;2022-09-06T03:45:01;14.33;;;12.90;;
13660;SDS011;6903;49.480;11.102;2022-09-06T03:47:27;13.93;;;12.53;;
13660;SDS011;6903;49.480;11.102;2022-09-06T03:49:52;15.47;;;13.97;;
13660;SDS011;6903;49.480;11.102;2022-09-06T03:52:18;16.97;;;15.23;;
13660;SDS011;6903;49.480;11.102;2022-09-06T03:54:43;16.43;;;14.93;;
13660;SDS011;6903;49.480;11.102;2022-09-06T03:57:09;16.10;;;14.57;;
13660;SDS011;6903;49.480;11.102;2022-09-06T03:59:34;16.87;;;15.17;;
13660;SDS011;6903;49.480;11.102;2022-09-06T04:02:00;17.70;;;14.23;;
13660;SDS011;6903;49.480;11.102;2022-09-06T04:04:26;16.73;;;15.03;;
13660;SDS011;6903;49.480;11.102;2022-09-06T04:06:52;16.10;;;14.40;;
13660;SDS011;6903;49.480;11.102;2022-09-06T04:09:17;15.37;;;13.93;;
13660;SDS011;6903;49.480;11.102;2022-09-06T04:11:42;17.60;;;15.90;;
13660;SDS011;6903;49.480;11.102;2022-09-06T04:14:07;17.03;;;15.33;;
13660;SDS011;6903;49.480;11.102;2022-09-06T04:16:33;17.47;;;15.87;;
13660;SDS011;6903;49.480;11.102;2022-09-06T04:18:58;20.90;;;18.83;;
13660;SDS011;6903;49.480;11.102;2022-09-06T04:21:25;20.07;;;18.17;;
13660;SDS011;6903;49.480;11.102;2022-09-06T04:23:51;21.27;;;17.97;;
13660;SDS011;6903;49.480;11.102;2022-09-06T04:26:16;22.70;;;18.23;;
13660;SDS011;6903;49.480;11.102;2022-09-06T04:28:42;20.70;;;18.80;;
13660;SDS011;6903;49.480;11.102;2022-09-06T04:31:07;21.00;;;18.90;;
13660;SDS011;6903;49.480;11.102;2022-09-06T04:33:33;20.87;;;18.77;;
13660;SDS011;6903;49.480;11.102;2022-09-06T04:36:00;20.47;;;18.47;;
13660;SDS011;6903;49.480;11.102;2022-09-06T04:38:27;20.23;;;18.33;;
13660;SDS011;6903;49.480;11.102;2022-09-06T04:40:54;21.50;;;19.10;;
13660;SDS011;6903;49.480;11.102;2022-09-06T04:43:20;20.97;;;18.93;;
13660;SDS011;6903;49.480;11.102;2022-09-06T04:45:46;18.83;;;16.87;;
13660;SDS011;6903;49.480;11.102;2022-09-06T04:48:11;20.47;;;18.57;;
13660;SDS011;6903;49.480;11.102;2022-09-06T04:50:37;19.43;;;17.70;;
13660;SDS011;6903;49.480;11.102;2022-09-06T04:53:02;18.97;;;17.03;;
13660;SDS011;6903;49.480;11.102;2022-09-06T04:55:28;18.57;;;16.87;;
13660;SDS011;6903;49.480;11.102;2022-09-06T04:57:55;15.60;;;14.30;;
13660;SDS011;6903;49.480;11.102;2022-09-06T05:00:24;14.17;;;12.87;;
13660;SDS011;6903;49.480;11.102;2022-09-06T05:02:50;13.33;;;12.20;;
13660;SDS011;6903;49.480;11.102;2022-09-06T05:05:16;14.83;;;13.43;;
13660;SDS011;6903;49.480;11.102;2022-09-06T05:07:41;15.67;;;13.67;;
13660;SDS011;6903;49.480;11.102;2022-09-06T05:10:06;16.10;;;14.33;;
13660;SDS011;6903;49.480;11.102;2022-09-06T05:12:32;15.20;;;13.70;;
13660;SDS011;6903;49.480;11.102;2022-09-06T05:14:57;14.47;;;12.97;;
13660;SDS011;6903;49.480;11.102;2022-09-06T05:17:23;12.57;;;11.47;;
13660;SDS011;6903;49.480;11.102;2022-09-06T05:19:48;12.80;;;11.57;;
13660;SDS011;6903;49.480;11.102;2022-09-06T05:22:13;12.93;;;11.60;;
13660;SDS011;6903;49.480;11.102;2022-09-06T05:24:39;12.57;;;11.40;;
13660;SDS011;6903;49.480;11.102;2022-09-06T05:27:04;11.80;;;10.80;;
13660;SDS011;6903;49.480;11.102;2022-09-06T05:29:31;12.47;;;11.27;;
13660;SDS011;6903;49.480;11.102;2022-09-06T05:31:57;12.43;;;11.33;;
13660;SDS011;6903;49.480;11.102;2022-09-06T05:34:22;12.20;;;11.20;;
13660;SDS011;6903;49.480;11.102;2022-09-06T05:36:47;12.33;;;11.13;;
13660;SDS011;6903;49.480;11.102;2022-09-06T05:39:13;11.98;;;10.77;;
13660;SDS011;6903;49.480;11.102;2022-09-06T05:41:38;11.20;;;10.20;;
13660;SDS011;6903;49.480;11.102;2022-09-06T05:44:03;10.80;;;9.55;;
13660;SDS011;6903;49.480;11.102;2022-09-06T05:46:29;8.98;;;8.15;;
13660;SDS011;6903;49.480;11.102;2022-09-06T05:48:55;11.40;;;10.30;;
13660;SDS011;6903;49.480;11.102;2022-09-06T05:51:24;9.40;;;8.60;;
13660;SDS011;6903;49.480;11.102;2022-09-06T05:53:50;10.85;;;9.90;;
13660;SDS011;6903;49.480;11.102;2022-09-06T05:56:15;11.18;;;10.18;;
13660;SDS011;6903;49.480;11.102;2022-09-06T05:58:41;8.73;;;8.02;;
13660;SDS011;6903;49.480;11.102;2022-09-06T06:03:38;11.82;;;10.73;;
13660;SDS011;6903;49.480;11.102;2022-09-06T06:06:03;11.25;;;10.13;;
13660;SDS011;6903;49.480;11.102;2022-09-06T06:08:29;10.85;;;9.75;;
13660;SDS011;6903;49.480;11.102;2022-09-06T06:10:57;16.15;;;10.40;;
13660;SDS011;6903;49.480;11.102;2022-09-06T06:13:24;11.98;;;10.07;;
13660;SDS011;6903;49.480;11.102;2022-09-06T06:15:50;11.65;;;10.20;;
13660;SDS011;6903;49.480;11.102;2022-09-06T06:18:16;11.82;;;9.90;;
13660;SDS011;6903;49.480;11.102;2022-09-06T06:20:41;11.05;;;8.70;;
13660;SDS011;6903;49.480;11.102;2022-09-06T06:23:06;10.20;;;9.20;;
13660;SDS011;6903;49.480;11.102;2022-09-06T06:25:31;8.70;;;8.00;;
13660;SDS011;6903;49.480;11.102;2022-09-06T06:27:57;10.18;;;9.18;;
13660;SDS011;6903;49.480;11.102;2022-09-06T06:30:22;9.80;;;8.75;;
13660;SDS011;6903;49.480;11.102;2022-09-06T06:32:47;9.43;;;7.72;;
13660;SDS011;6903;49.480;11.102;2022-09-06T06:35:13;8.23;;;7.50;;
13660;SDS011;6903;49.480;11.102;2022-09-06T06:37:38;9.10;;;8.10;;
13660;SDS011;6903;49.480;11.102;2022-09-06T06:40:03;7.95;;;7.35;;
13660;SDS011;6903;49.480;11.102;2022-09-06T06:42:29;8.57;;;7.88;;
13660;SDS011;6903;49.480;11.102;2022-09-06T06:44:54;9.20;;;8.43;;
13660;SDS011;6903;49.480;11.102;2022-09-06T06:47:20;8.95;;;8.15;;
13660;SDS011;6903;49.480;11.102;2022-09-06T06:49:46;10.32;;;9.45;;
13660;SDS011;6903;49.480;11.102;2022-09-06T06:52:12;9.02;;;8.23;;
13660;SDS011;6903;49.480;11.102;2022-09-06T06:54:37;9.55;;;8.63;;
13660;SDS011;6903;49.480;11.102;2022-09-06T06:57:03;9.10;;;8.30;;
13660;SDS011;6903;49.480;11.102;2022-09-06T06:59:29;9.15;;;8.38;;
13660;SDS011;6903;49.480;11.102;2022-09-06T07:01:54;9.77;;;7.88;;
13660;SDS011;6903;49.480;11.102;2022-09-06T07:04:20;9.38;;;8.57;;
13660;SDS011;6903;49.480;11.102;2022-09-06T07:06:46;9.15;;;8.27;;
13660;SDS011;6903;49.480;11.102;2022-09-06T07:09:14;9.00;;;8.20;;
13660;SDS011;6903;49.480;11.102;2022-09-06T07:11:42;8.65;;;7.95;;
13660;SDS011;6903;49.480;11.102;2022-09-06T07:14:07;9.02;;;8.18;;
13660;SDS011;6903;49.480;11.102;2022-09-06T07:16:33;8.30;;;7.60;;
13660;SDS011;6903;49.480;11.102;2022-09-06T07:18:58;8.02;;;7.40;;
13660;SDS011;6903;49.480;11.102;2022-09-06T07:21:24;7.80;;;7.15;;
13660;SDS011;6903;49.480;11.102;2022-09-06T07:23:53;8.57;;;7.70;;
13660;SDS011;6903;49.480;11.102;2022-09-06T07:26:20;7.75;;;6.97;;
13660;SDS011;6903;49.480;11.102;2022-09-06T07:28:47;7.60;;;6.90;;
13660;SDS011;6903;49.480;11.102;2022-09-06T07:31:12;7.30;;;6.70;;
13660;SDS011;6903;49.480;11.102;2022-09-06T07:33:38;7.30;;;6.75;;
13660;SDS011;6903;49.480;11.102;2022-09-06T07:36:04;7.95;;;7.25;;
13660;SDS011;6903;49.480;11.102;2022-09-06T07:38:31;6.90;;;6.30;;
13660;SDS011;6903;49.480;11.102;2022-09-06T07:40:58;7.13;;;6.45;;
13660;SDS011;6903;49.480;11.102;2022-09-06T07:43:25;8.10;;;6.93;;
13660;SDS011;6903;49.480;11.102;2022-09-06T07:48:37;6.32;;;5.82;;
13660;SDS011;6903;49.480;11.102;2022-09-06T07:51:06;7.45;;;6.85;;
13660;SDS011;6903;49.480;11.102;2022-09-06T07:53:42;6.70;;;6.10;;
13660;SDS011;6903;49.480;11.102;2022-09-06T07:56:10;7.03;;;6.32;;
13660;SDS011;6903;49.480;11.102;2022-09-06T07:58:36;7.32;;;6.68;;
13660;SDS011;6903;49.480;11.102;2022-09-06T08:01:14;7.45;;;6.80;;
13660;SDS011;6903;49.480;11.102;2022-09-06T08:04:01;7.38;;;6.78;;
13660;SDS011;6903;49.480;11.102;2022-09-06T08:06:32;7.38;;;6.60;;
13660;SDS011;6903;49.480;11.102;2022-09-06T08:09:00;7.57;;;6.68;;
13660;SDS011;6903;49.480;11.102;2022-09-06T08:11:27;7.28;;;6.55;;
13660;SDS011;6903;49.480;11.102;2022-09-06T08:13:54;7.15;;;6.55;;
13660;SDS011;6903;49.480;11.102;2022-09-06T08:16:21;6.72;;;6.10;;
13660;SDS011;6903;49.480;11.102;2022-09-06T08:18:55;7.28;;;6.68;;
13660;SDS011;6903;49.480;11.102;2022-09-06T08:21:23;7.40;;;6.80;;
13660;SDS011;6903;49.480;11.102;2022-09-06T08:23:51;7.10;;;6.50;;
13660;SDS011;6903;49.480;11.102;2022-09-06T08:26:18;8.00;;;7.32;;
13660;SDS011;6903;49.480;11.102;2022-09-06T08:28:45;7.57;;;6.97;;
13660;SDS011;6903;49.480;11.102;2022-09-06T08:31:12;6.97;;;6.38;;
13660;SDS011;6903;49.480;11.102;2022-09-06T08:33:39;7.20;;;6.60;;
13660;SDS011;6903;49.480;11.102;2022-09-06T08:36:05;8.10;;;7.35;;
13660;SDS011;6903;49.480;11.102;2022-09-06T08:38:32;8.95;;;7.20;;
13660;SDS011;6903;49.480;11.102;2022-09-06T08:41:04;8.07;;;7.30;;
13660;SDS011;6903;49.480;11.102;2022-09-06T08:43:50;7.80;;;7.13;;
13660;SDS011;6903;49.480;11.102;2022-09-06T08:46:21;7.55;;;6.90;;
13660;SDS011;6903;49.480;11.102;2022-09-06T08:48:55;7.43;;;6.85;;
13660;SDS011;6903;49.480;11.102;2022-09-06T08:51:29;7.07;;;6.47;;
13660;SDS011;6903;49.480;11.102;2022-09-06T08:57:15;7.95;;;7.10;;
13660;SDS011;6903;49.480;11.102;2022-09-06T09:00:04;6.50;;;6.00;;
13660;SDS011;6903;49.480;11.102;2022-09-06T09:02:43;6.75;;;6.15;;
13660;SDS011;6903;49.480;11.102;2022-09-06T09:05:13;8.60;;;6.53;;
13660;SDS011;6903;49.480;11.102;2022-09-06T09:07:46;6.55;;;5.97;;
13660;SDS011;6903;49.480;11.102;2022-09-06T09:10:22;6.88;;;6.28;;
13660;SDS011;6903;49.480;11.102;2022-09-06T09:12:56;6.45;;;5.82;;
13660;SDS011;6903;49.480;11.102;2022-09-06T09:15:24;7.35;;;6.30;;
13660;SDS011;6903;49.480;11.102;2022-09-06T09:17:50;6.95;;;6.25;;
13660;SDS011;6903;49.480;11.102;2022-09-06T09:20:17;6.50;;;5.30;;
13660;SDS011;6903;49.480;11.102;2022-09-06T09:22:42;7.20;;;6.50;;
13660;SDS011;6903;49.480;11.102;2022-09-06T09:25:12;7.32;;;6.43;;
13660;SDS011;6903;49.480;11.102;2022-09-06T09:27:42;6.28;;;5.78;;
13660;SDS011;6903;49.480;11.102;2022-09-06T09:30:09;7.47;;;5.57;;
13660;SDS011;6903;49.480;11.102;2022-09-06T09:32:36;5.93;;;5.43;;
13660;SDS011;6903;49.480;11.102;2022-09-06T09:35:47;11.32;;;8.27;;
13660;SDS011;6903;49.480;11.102;2022-09-06T09:38:10;6.30;;;5.72;;
13660;SDS011;6903;49.480;11.102;2022-09-06T09:40:41;6.82;;;5.90;;
13660;SDS011;6903;49.480;11.102;2022-09-06T09:43:21;6.65;;;5.97;;
13660;SDS011;6903;49.480;11.102;2022-09-06T09:48:35;7.40;;;6.70;;
13660;SDS011;6903;49.480;11.102;2022-09-06T09:53:59;6.40;;;5.78;;
13660;SDS011;6903;49.480;11.102;2022-09-06T09:56:32;7.50;;;6.80;;
13660;SDS011;6903;49.480;11.102;2022-09-06T09:59:01;7.25;;;5.82;;
13660;SDS011;6903;49.480;11.102;2022-09-06T10:01:31;6.13;;;5.63;;
13660;SDS011;6903;49.480;11.102;2022-09-06T10:04:05;8.32;;;6.28;;
13660;SDS011;6903;49.480;11.102;2022-09-06T10:06:32;6.35;;;5.85;;
13660;SDS011;6903;49.480;11.102;2022-09-06T10:08:57;5.07;;;4.60;;
13660;SDS011;6903;49.480;11.102;2022-09-06T10:11:40;5.40;;;5.00;;
13660;SDS011;6903;49.480;11.102;2022-09-06T10:14:30;4.95;;;4.60;;
13660;SDS011;6903;49.480;11.102;2022-09-06T10:16:56;5.25;;;4.47;;
13660;SDS011;6903;49.480;11.102;2022-09-06T10:19:35;6.25;;;5.75;;
13660;SDS011;6903;49.480;11.102;2022-09-06T10:22:11;6.85;;;5.20;;
13660;SDS011;6903;49.480;11.102;2022-09-06T10:25:04;5.22;;;4.78;;
13660;SDS011;6903;49.480;11.102;2022-09-06T10:27:41;5.22;;;4.78;;
13660;SDS011;6903;49.480;11.102;2022-09-06T10:30:23;6.70;;;4.20;;
13660;SDS011;6903;49.480;11.102;2022-09-06T10:32:52;4.90;;;4.50;;
13660;SDS011;6903;49.480;11.102;2022-09-06T10:35:29;6.22;;;5.60;;
13660;SDS011;6903;49.480;11.102;2022-09-06T10:43:47;5.82;;;3.78;;
13660;SDS011;6903;49.480;11.102;2022-09-06T10:46:38;4.45;;;3.85;;
13660;SDS011;6903;49.480;11.102;2022-09-06T10:49:09;4.00;;;2.80;;
13660;SDS011;6903;49.480;11.102;2022-09-06T10:51:47;4.07;;;3.78;;
13660;SDS011;6903;49.480;11.102;2022-09-06T10:54:21;6.93;;;4.53;;
13660;SDS011;6903;49.480;11.102;2022-09-06T10:56:58;6.57;;;4.03;;
13660;SDS011;6903;49.480;11.102;2022-09-06T10:59:40;3.17;;;2.75;;
13660;SDS011;6903;49.480;11.102;2022-09-06T11:05:06;3.30;;;3.00;;
13660;SDS011;6903;49.480;11.102;2022-09-06T11:07:36;2.80;;;2.60;;
13660;SDS011;6903;49.480;11.102;2022-09-06T11:10:17;3.30;;;3.00;;
13660;SDS011;6903;49.480;11.102;2022-09-06T11:13:33;3.85;;;3.20;;
13660;SDS011;6903;49.480;11.102;2022-09-06T11:15:47;3.03;;;2.83;;
13660;SDS011;6903;49.480;11.102;2022-09-06T11:23:56;4.07;;;2.55;;
13660;SDS011;6903;49.480;11.102;2022-09-06T11:29:16;2.65;;;2.28;;
13660;SDS011;6903;49.480;11.102;2022-09-06T11:31:49;4.00;;;2.67;;
13660;SDS011;6903;49.480;11.102;2022-09-06T11:36:45;3.75;;;2.70;;
13660;SDS011;6903;49.480;11.102;2022-09-06T11:39:12;4.03;;;3.25;;
13660;SDS011;6903;49.480;11.102;2022-09-06T11:41:47;3.13;;;2.50;;
13660;SDS011;6903;49.480;11.102;2022-09-06T11:44:19;2.70;;;2.30;;
13660;SDS011;6903;49.480;11.102;2022-09-06T11:47:33;4.32;;;2.50;;
13660;SDS011;6903;49.480;11.102;2022-09-06T11:55:39;2.10;;;1.90;;
13660;SDS011;6903;49.480;11.102;2022-09-06T11:58:09;2.40;;;2.10;;
13660;SDS011;6903;49.480;11.102;2022-09-06T12:00:45;5.03;;;2.65;;
13660;SDS011;6903;49.480;11.102;2022-09-06T12:08:59;2.75;;;2.20;;
13660;SDS011;6903;49.480;11.102;2022-09-06T12:14:24;2.70;;;2.38;;
13660;SDS011;6903;49.480;11.102;2022-09-06T12:24:51;3.75;;;1.77;;
13660;SDS011;6903;49.480;11.102;2022-09-06T12:27:20;4.18;;;2.05;;
13660;SDS011;6903;49.480;11.102;2022-09-06T12:33:30;5.80;;;2.45;;
13660;SDS011;6903;49.480;11.102;2022-09-06T12:41:22;3.53;;;2.47;;
13660;SDS011;6903;49.480;11.102;2022-09-06T12:43:50;2.97;;;2.20;;
13660;SDS011;6903;49.480;11.102;2022-09-06T12:46:16;3.22;;;2.35;;
13660;SDS011;6903;49.480;11.102;2022-09-06T12:48:42;3.55;;;2.58;;
13660;SDS011;6903;49.480;11.102;2022-09-06T12:51:24;2.42;;;2.22;;
13660;SDS011;6903;49.480;11.102;2022-09-06T12:53:54;3.83;;;2.50;;
13660;SDS011;6903;49.480;11.102;2022-09-06T12:56:22;5.20;;;2.90;;
13660;SDS011;6903;49.480;11.102;2022-09-06T12:58:49;2.83;;;2.40;;
13660;SDS011;6903;49.480;11.102;2022-09-06T13:01:16;2.58;;;2.20;;
13660;SDS011;6903;49.480;11.102;2022-09-06T13:03:44;4.28;;;2.55;;
13660;SDS011;6903;49.480;11.102;2022-09-06T13:06:20;2.60;;;2.40;;
13660;SDS011;6903;49.480;11.102;2022-09-06T13:08:49;3.13;;;2.55;;
13660;SDS011;6903;49.480;11.102;2022-09-06T13:11:19;2.60;;;2.20;;
13660;SDS011;6903;49.480;11.102;2022-09-06T13:13:52;2.67;;;2.45;;
13660;SDS011;6903;49.480;11.102;2022-09-06T13:16:22;5.03;;;2.40;;
13660;SDS011;6903;49.480;11.102;2022-09-06T13:18:50;2.90;;;2.50;;
13660;SDS011;6903;49.480;11.102;2022-09-06T13:23:55;4.10;;;2.60;;
13660;SDS011;6903;49.480;11.102;2022-09-06T13:26:38;2.90;;;2.53;;
13660;SDS011;6903;49.480;11.102;2022-09-06T13:31:44;7.90;;;4.00;;
13660;SDS011;6903;49.480;11.102;2022-09-06T13:34:18;3.25;;;2.80;;
13660;SDS011;6903;49.480;11.102;2022-09-06T13:36:49;2.78;;;2.58;;
13660;SDS011;6903;49.480;11.102;2022-09-06T13:41:58;2.70;;;2.50;;
13660;SDS011;6903;49.480;11.102;2022-09-06T13:44:27;4.65;;;2.67;;
13660;SDS011;6903;49.480;11.102;2022-09-06T13:46:53;3.65;;;3.13;;
13660;SDS011;6903;49.480;11.102;2022-09-06T13:49:19;3.05;;;2.42;;
13660;SDS011;6903;49.480;11.102;2022-09-06T13:51:47;2.88;;;2.58;;
13660;SDS011;6903;49.480;11.102;2022-09-06T13:54:13;4.80;;;3.00;;
13660;SDS011;6903;49.480;11.102;2022-09-06T13:56:39;2.80;;;2.25;;
13660;SDS011;6903;49.480;11.102;2022-09-06T13:59:08;2.70;;;2.33;;
13660;SDS011;6903;49.480;11.102;2022-09-06T14:01:34;3.28;;;2.42;;
13660;SDS011;6903;49.480;11.102;2022-09-06T14:04:00;2.75;;;2.30;;
13660;SDS011;6903;49.480;11.102;2022-09-06T14:06:26;7.65;;;3.20;;
13660;SDS011;6903;49.480;11.102;2022-09-06T14:08:52;2.90;;;2.50;;
13660;SDS011;6903;49.480;11.102;2022-09-06T14:11:17;6.63;;;2.75;;
13660;SDS011;6903;49.480;11.102;2022-09-06T14:13:42;2.60;;;2.40;;
13660;SDS011;6903;49.480;11.102;2022-09-06T14:16:08;3.20;;;1.90;;
13660;SDS011;6903;49.480;11.102;2022-09-06T14:18:33;3.55;;;2.33;;
13660;SDS011;6903;49.480;11.102;2022-09-06T14:20:59;3.85;;;2.22;;
13660;SDS011;6903;49.480;11.102;2022-09-06T14:23:24;4.85;;;2.50;;
13660;SDS011;6903;49.480;11.102;2022-09-06T14:25:55;4.00;;;2.65;;
13660;SDS011;6903;49.480;11.102;2022-09-06T14:28:21;4.82;;;2.63;;
13660;SDS011;6903;49.480;11.102;2022-09-06T14:30:47;3.72;;;2.40;;
13660;SDS011;6903;49.480;11.102;2022-09-06T14:33:12;3.30;;;2.60;;
13660;SDS011;6903;49.480;11.102;2022-09-06T14:35:38;2.25;;;2.05;;
13660;SDS011;6903;49.480;11.102;2022-09-06T14:38:07;2.58;;;2.33;;
13660;SDS011;6903;49.480;11.102;2022-09-06T14:40:33;3.92;;;2.78;;
13660;SDS011;6903;49.480;11.102;2022-09-06T14:43:00;3.42;;;2.20;;
13660;SDS011;6903;49.480;11.102;2022-09-06T14:45:25;4.38;;;2.83;;
13660;SDS011;6903;49.480;11.102;2022-09-06T14:47:50;5.18;;;2.70;;
13660;SDS011;6903;49.480;11.102;2022-09-06T14:50:16;7.65;;;2.88;;
13660;SDS011;6903;49.480;11.102;2022-09-06T14:52:41;3.00;;;2.60;;
13660;SDS011;6903;49.480;11.102;2022-09-06T14:55:06;4.50;;;2.25;;
13660;SDS011;6903;49.480;11.102;2022-09-06T14:57:32;4.15;;;2.70;;
13660;SDS011;6903;49.480;11.102;2022-09-06T14:59:58;4.53;;;2.60;;
13660;SDS011;6903;49.480;11.102;2022-09-06T15:02:24;4.50;;;2.60;;
13660;SDS011;6903;49.480;11.102;2022-09-06T15:04:52;5.47;;;3.20;;
13660;SDS011;6903;49.480;11.102;2022-09-06T15:07:19;1.92;;;1.80;;
13660;SDS011;6903;49.480;11.102;2022-09-06T15:09:44;6.28;;;2.47;;
13660;SDS011;6903;49.480;11.102;2022-09-06T15:12:10;4.35;;;2.53;;
13660;SDS011;6903;49.480;11.102;2022-09-06T15:14:35;2.30;;;2.10;;
13660;SDS011;6903;49.480;11.102;2022-09-06T15:17:01;2.88;;;2.30;;
13660;SDS011;6903;49.480;11.102;2022-09-06T15:19:30;3.30;;;2.17;;
13660;SDS011;6903;49.480;11.102;2022-09-06T15:21:57;6.25;;;2.47;;
13660;SDS011;6903;49.480;11.102;2022-09-06T15:24:23;4.22;;;2.42;;
13660;SDS011;6903;49.480;11.102;2022-09-06T15:26:48;3.38;;;2.10;;
13660;SDS011;6903;49.480;11.102;2022-09-06T15:29:14;2.30;;;2.05;;
13660;SDS011;6903;49.480;11.102;2022-09-06T15:31:40;3.95;;;2.10;;
13660;SDS011;6903;49.480;11.102;2022-09-06T15:34:06;2.17;;;2.00;;
13660;SDS011;6903;49.480;11.102;2022-09-06T15:36:33;3.00;;;2.10;;
13660;SDS011;6903;49.480;11.102;2022-09-06T15:38:59;2.92;;;1.90;;
13660;SDS011;6903;49.480;11.102;2022-09-06T15:41:26;2.85;;;2.15;;
13660;SDS011;6903;49.480;11.102;2022-09-06T15:43:54;2.90;;;2.05;;
13660;SDS011;6903;49.480;11.102;2022-09-06T15:49:04;2.67;;;1.60;;
13660;SDS011;6903;49.480;11.102;2022-09-06T15:51:32;4.18;;;2.20;;
13660;SDS011;6903;49.480;11.102;2022-09-06T15:53:58;2.47;;;2.00;;
13660;SDS011;6903;49.480;11.102;2022-09-06T15:56:23;3.60;;;2.42;;
13660;SDS011;6903;49.480;11.102;2022-09-06T15:58:49;5.60;;;2.30;;
13660;SDS011;6903;49.480;11.102;2022-09-06T16:01:18;5.18;;;2.67;;
13660;SDS011;6903;49.480;11.102;2022-09-06T16:03:49;5.18;;;2.83;;
13660;SDS011;6903;49.480;11.102;2022-09-06T16:06:17;10.23;;;4.90;;
13660;SDS011;6903;49.480;11.102;2022-09-06T16:08:45;9.07;;;4.32;;
13660;SDS011;6903;49.480;11.102;2022-09-06T16:11:13;4.18;;;3.10;;
13660;SDS011;6903;49.480;11.102;2022-09-06T16:13:39;8.73;;;3.75;;
13660;SDS011;6903;49.480;11.102;2022-09-06T16:16:06;4.63;;;3.20;;
13660;SDS011;6903;49.480;11.102;2022-09-06T16:18:34;12.30;;;6.30;;
13660;SDS011;6903;49.480;11.102;2022-09-06T16:23:49;4.28;;;2.53;;
13660;SDS011;6903;49.480;11.102;2022-09-06T16:26:18;3.33;;;2.47;;